Time;durP1;ratioP1;P1;durP2;ratioP2;P2;SDS_P1;SDS_P2;PMS_P1;PMS_P2;Temp;Humidity;BMP_temperature;BMP_pressure;BME280_temperature;BME280_humidity;BME280_pressure;Samples;Min_cycle;Max_cycle;Signal;HPM_P1;HPM_P2
2023/08/30 00:00:56;;;;;;;0.00;0.00;;;;;;;10.80;96.15;99740.34;4993807;28;20049;-75
2023/08/30 00:03:21;;;;;;;0.00;0.00;;;;;;;10.80;95.80;99740.34;4993227;28;20034;-75
2023/08/30 00:05:49;;;;;;;0.00;0.00;;;;;;;10.73;95.34;99728.91;4975522;28;20032;-75
2023/08/30 00:08:19;;;;;;;0.00;0.00;;;;;;;10.78;94.80;99737.09;5008956;28;20025;-76
2023/08/30 00:10:46;;;;;;;0.10;0.10;;;;;;;10.71;95.35;99721.00;5004224;28;20026;-75
2023/08/30 00:13:11;;;;;;;0.00;0.00;;;;;;;10.74;95.02;99725.88;5003961;28;20021;-75
2023/08/30 00:15:37;;;;;;;0.00;0.00;;;;;;;10.72;94.35;99721.78;5004798;28;20040;-76
2023/08/30 00:18:02;;;;;;;0.00;0.00;;;;;;;10.85;94.36;99742.22;5001033;28;20031;-77
2023/08/30 00:20:30;;;;;;;0.00;0.00;;;;;;;10.61;94.35;99713.66;4985240;28;20038;-76
2023/08/30 00:23:03;;;;;;;0.00;0.00;;;;;;;10.61;94.21;99721.88;4987973;28;20108;-73
2023/08/30 00:25:29;;;;;;;0.00;0.00;;;;;;;10.71;94.39;99742.06;5001339;28;20032;-74
2023/08/30 00:27:59;;;;;;;0.00;0.00;;;;;;;10.72;94.66;99743.66;5001544;28;20033;-74
2023/08/30 00:30:24;;;;;;;0.00;0.00;;;;;;;10.52;94.42;99712.63;4987783;28;20037;-75
2023/08/30 00:32:49;;;;;;;0.00;0.00;;;;;;;10.56;94.42;99730.13;5001638;28;20029;-76
2023/08/30 00:35:15;;;;;;;0.00;0.00;;;;;;;10.60;94.46;99725.72;5005654;28;20029;-74
2023/08/30 00:37:42;;;;;;;0.00;0.00;;;;;;;10.69;94.53;99731.41;4993862;28;20029;-75
2023/08/30 00:40:08;;;;;;;0.00;0.00;;;;;;;10.80;93.57;99732.13;4955658;28;20032;-74
2023/08/30 00:42:34;;;;;;;0.00;0.00;;;;;;;10.80;93.62;99729.41;5023030;28;20371;-74
2023/08/30 00:45:02;;;;;;;0.00;0.00;;;;;;;10.98;92.97;99747.88;5005975;28;21410;-74
2023/08/30 00:47:34;;;;;;;0.00;0.00;;;;;;;10.87;92.65;99724.44;4992786;28;20042;-76
2023/08/30 00:50:00;;;;;;;0.00;0.00;;;;;;;10.73;93.01;99707.03;5005064;28;20038;-76
2023/08/30 00:52:26;;;;;;;0.00;0.00;;;;;;;10.53;93.29;99702.50;5026703;28;20025;-74
2023/08/30 00:54:54;;;;;;;0.00;0.00;;;;;;;10.48;94.12;99717.03;4998312;28;20083;-76
2023/08/30 00:57:20;;;;;;;0.00;0.00;;;;;;;10.37;94.06;99705.34;5010704;28;20075;-74
2023/08/30 00:59:45;;;;;;;0.00;0.00;;;;;;;10.35;94.54;99717.66;4988597;28;20528;-76
2023/08/30 01:02:12;;;;;;;0.00;0.00;;;;;;;10.31;94.78;99718.19;4977629;28;20022;-75
2023/08/30 01:05:03;;;;;;;0.00;0.00;;;;;;;10.17;95.22;99711.69;4999216;28;20117;-74
2023/08/30 01:07:28;;;;;;;0.00;0.00;;;;;;;10.08;95.66;99699.75;4982952;28;20089;-74
2023/08/30 01:09:57;;;;;;;0.00;0.00;;;;;;;10.02;95.90;99692.66;5005463;28;20119;-75
2023/08/30 01:12:31;;;;;;;0.00;0.00;;;;;;;9.98;96.19;99686.13;5021147;28;20017;-76
2023/08/30 01:15:11;;;;;;;0.00;0.00;;;;;;;9.99;96.08;99699.50;5010198;28;20430;-80
2023/08/30 01:17:41;;;;;;;0.00;0.00;;;;;;;9.93;96.81;99701.44;5007073;28;20480;-74
2023/08/30 01:20:18;;;;;;;;;;;;;;;;;;;;;
2023/08/30 01:30:11;;;;;;;0.00;0.00;;;;;;;9.73;98.63;99685.13;4938948;28;21319;-76
2023/08/30 01:34:05;;;;;;;;;;;;;;;;;;;;;
2023/08/30 01:37:28;;;;;;;;;;;;;;;;;;;;;
2023/08/30 01:40:04;;;;;;;0.00;0.00;;;;;;;9.89;99.09;99724.13;4913636;29;20043;-77
2023/08/30 01:49:08;;;;;;;0.00;0.00;;;;;;;9.86;99.79;99690.00;4932549;29;19922;-76
2023/08/30 01:51:39;;;;;;;0.00;0.00;;;;;;;9.83;99.56;99685.09;4912301;29;20047;-76
2023/08/30 01:54:06;;;;;;;0.00;0.00;;;;;;;9.91;99.90;99695.41;4998661;28;20431;-76
2023/08/30 01:56:33;;;;;;;0.00;0.00;;;;;;;10.07;99.98;99706.28;5009328;28;20148;-76
2023/08/30 01:58:59;;;;;;;0.00;0.00;;;;;;;10.05;100.00;99708.50;4989817;28;20088;-78
2023/08/30 02:01:24;;;;;;;0.00;0.00;;;;;;;10.06;100.00;99712.84;5010444;28;20025;-77
2023/08/30 02:03:50;;;;;;;0.03;0.03;;;;;;;10.00;100.00;99705.78;5014690;28;20080;-77
2023/08/30 02:06:24;;;;;;;0.00;0.00;;;;;;;9.92;100.00;99690.78;4993974;28;20121;-76
2023/08/30 02:09:19;;;;;;;0.00;0.00;;;;;;;10.02;100.00;99706.31;5017912;28;22064;-76
2023/08/30 02:11:47;;;;;;;0.00;0.00;;;;;;;10.07;100.00;99703.56;5006923;28;20030;-76
2023/08/30 02:14:18;;;;;;;0.00;0.00;;;;;;;9.99;100.00;99698.66;5006287;28;20022;-76
2023/08/30 02:16:46;;;;;;;0.00;0.00;;;;;;;9.82;100.00;99672.53;5024044;28;20029;-78
2023/08/30 02:19:13;;;;;;;0.00;0.00;;;;;;;9.85;100.00;99696.53;5008522;28;20022;-76
2023/08/30 02:21:40;;;;;;;0.00;0.00;;;;;;;9.89;100.00;99705.00;4988468;28;20037;-75
2023/08/30 02:24:06;;;;;;;0.00;0.00;;;;;;;9.88;100.00;99708.81;5003149;28;20116;-78
2023/08/30 02:26:31;;;;;;;0.00;0.00;;;;;;;9.79;100.00;99700.41;4982659;28;20036;-74
2023/08/30 02:28:56;;;;;;;0.00;0.00;;;;;;;9.76;100.00;99707.22;4983366;28;20027;-76
2023/08/30 02:31:22;;;;;;;0.00;0.00;;;;;;;9.79;100.00;99706.66;4988952;28;20038;-76
2023/08/30 02:33:47;;;;;;;0.00;0.00;;;;;;;9.74;100.00;99708.63;4990979;28;20029;-73
2023/08/30 02:36:13;;;;;;;0.00;0.00;;;;;;;9.65;100.00;99699.34;4984919;28;20022;-73
2023/08/30 02:38:38;;;;;;;0.00;0.00;;;;;;;9.53;100.00;99692.28;5025104;28;20067;-73
2023/08/30 02:41:04;;;;;;;0.00;0.00;;;;;;;9.59;100.00;99696.66;5006350;28;20037;-75
2023/08/30 02:43:29;;;;;;;0.00;0.00;;;;;;;9.59;100.00;99698.53;5005807;28;20368;-73
2023/08/30 02:45:55;;;;;;;0.10;0.10;;;;;;;9.66;100.00;99701.78;4999178;28;20079;-75
2023/08/30 02:48:20;;;;;;;0.00;0.00;;;;;;;9.61;100.00;99699.91;4994540;28;20038;-74
2023/08/30 02:50:48;;;;;;;0.00;0.00;;;;;;;9.62;100.00;99706.16;4975039;28;20029;-75
2023/08/30 02:53:14;;;;;;;0.00;0.00;;;;;;;9.54;100.00;99683.00;5016358;28;20032;-76
2023/08/30 02:55:39;;;;;;;0.00;0.00;;;;;;;9.64;100.00;99697.69;4971605;28;20034;-76
2023/08/30 02:58:04;;;;;;;0.00;0.00;;;;;;;9.63;100.00;99696.09;5013533;28;20385;-77
2023/08/30 03:01:26;;;;;;;0.00;0.00;;;;;;;9.64;100.00;99697.69;5007860;28;20026;-75
2023/08/30 03:03:54;;;;;;;0.00;0.00;;;;;;;9.31;100.00;99645.41;5001113;28;20040;-74
2023/08/30 03:06:19;;;;;;;0.00;0.00;;;;;;;9.50;100.00;99673.72;5010366;28;20096;-75
2023/08/30 03:08:47;;;;;;;0.00;0.00;;;;;;;9.44;100.00;99689.28;5009034;28;20747;-76
2023/08/30 03:11:13;;;;;;;0.00;0.00;;;;;;;9.38;100.00;99700.50;4994552;28;20580;-74
2023/08/30 03:13:39;;;;;;;0.00;0.00;;;;;;;9.12;100.00;99681.44;4999564;28;20034;-75
2023/08/30 03:16:15;;;;;;;0.00;0.00;;;;;;;9.07;100.00;99701.34;4992411;28;20409;-74
2023/08/30 03:18:41;;;;;;;0.00;0.00;;;;;;;8.91;100.00;99695.09;5002015;28;20038;-75
2023/08/30 03:21:11;;;;;;;0.00;0.00;;;;;;;8.86;100.00;99700.56;5008650;28;20128;-73
2023/08/30 03:23:40;;;;;;;0.00;0.00;;;;;;;8.74;100.00;99687.16;5000782;28;20064;-74
2023/08/30 03:26:15;;;;;;;0.00;0.00;;;;;;;8.58;100.00;99666.44;5021082;28;20026;-75
2023/08/30 03:28:50;;;;;;;0.00;0.00;;;;;;;8.71;100.00;99686.91;5016788;28;20041;-73
2023/08/30 03:31:20;;;;;;;0.00;0.00;;;;;;;8.73;100.00;99687.44;5020691;28;20030;-76
2023/08/30 03:33:48;;;;;;;0.08;0.08;;;;;;;8.68;100.00;99682.00;5019232;28;20079;-76
2023/08/30 03:36:17;;;;;;;0.00;0.00;;;;;;;8.71;100.00;99676.00;5022203;28;20053;-75
2023/08/30 03:38:43;;;;;;;0.08;0.08;;;;;;;8.72;100.00;99661.28;5004043;28;20043;-77
2023/08/30 03:41:10;;;;;;;0.00;0.00;;;;;;;8.93;100.00;99685.81;5005828;28;20079;-76
2023/08/30 03:43:41;;;;;;;0.00;0.00;;;;;;;8.86;100.00;99656.09;5014120;28;20056;-76
2023/08/30 03:46:06;;;;;;;0.00;0.00;;;;;;;8.99;100.00;99665.63;5003022;28;20083;-77
2023/08/30 03:48:34;;;;;;;0.00;0.00;;;;;;;8.94;100.00;99662.94;4986969;28;20040;-76
2023/08/30 03:51:05;;;;;;;0.00;0.00;;;;;;;8.96;100.00;99661.53;5001101;28;20028;-75
2023/08/30 03:53:30;;;;;;;0.00;0.00;;;;;;;9.02;100.00;99670.53;5019599;28;20024;-76
2023/08/30 03:55:56;;;;;;;0.00;0.00;;;;;;;9.12;100.00;99673.25;4999997;28;20033;-76
2023/08/30 03:58:21;;;;;;;0.00;0.00;;;;;;;9.15;100.00;99669.97;5025078;28;20026;-76
2023/08/30 04:00:47;;;;;;;0.00;0.00;;;;;;;9.32;100.00;99666.94;4970799;28;20124;-76
2023/08/30 04:03:14;;;;;;;0.00;0.00;;;;;;;9.42;100.00;99674.31;5011010;28;20026;-76
2023/08/30 04:05:40;;;;;;;0.00;0.00;;;;;;;9.65;100.00;99693.88;4991998;28;20495;-76
2023/08/30 04:08:07;;;;;;;0.00;0.00;;;;;;;9.67;100.00;99686.25;5005893;28;20026;-76
2023/08/30 04:10:47;;;;;;;0.00;0.00;;;;;;;9.78;100.00;99685.09;4998906;28;20465;-76
2023/08/30 04:13:12;;;;;;;0.00;0.00;;;;;;;9.88;100.00;99686.97;4999453;28;21167;-76
2023/08/30 04:15:38;;;;;;;0.00;0.00;;;;;;;10.01;100.00;99696.50;5017542;28;20179;-76
2023/08/30 04:18:06;;;;;;;0.00;0.00;;;;;;;10.07;100.00;99695.38;4998612;28;20053;-76
2023/08/30 04:20:32;;;;;;;0.00;0.00;;;;;;;10.13;100.00;99699.69;5009623;28;20022;-76
2023/08/30 04:23:01;;;;;;;0.00;0.00;;;;;;;10.12;100.00;99698.88;4994358;28;20036;-77
2023/08/30 04:25:30;;;;;;;0.00;0.00;;;;;;;10.22;100.00;99708.97;4994861;28;20523;-76
2023/08/30 04:27:55;;;;;;;0.00;0.00;;;;;;;10.24;100.00;99706.75;5009780;28;20065;-75
2023/08/30 04:30:21;;;;;;;0.00;0.00;;;;;;;10.21;100.00;99707.31;5001969;28;20117;-76
2023/08/30 04:32:49;;;;;;;0.00;0.00;;;;;;;10.12;100.00;99698.09;4979183;28;20036;-77
2023/08/30 04:35:15;;;;;;;0.00;0.00;;;;;;;10.14;100.00;99696.69;4987637;28;20026;-76
2023/08/30 04:37:40;;;;;;;0.00;0.00;;;;;;;10.26;100.00;99715.47;4981161;28;20469;-77
2023/08/30 04:40:10;;;;;;;0.00;0.00;;;;;;;10.19;100.00;99698.59;4981915;28;20385;-76
2023/08/30 04:42:37;;;;;;;0.00;0.00;;;;;;;10.14;100.00;99684.94;5009265;28;20026;-75
2023/08/30 04:45:05;;;;;;;0.00;0.00;;;;;;;10.34;100.00;99710.56;5013303;28;20018;-77
2023/08/30 04:47:32;;;;;;;0.00;0.00;;;;;;;10.31;100.00;99707.25;5022233;28;20029;-76
2023/08/30 04:49:58;;;;;;;0.00;0.00;;;;;;;10.33;100.00;99706.16;5001089;28;20104;-75
2023/08/30 04:52:24;;;;;;;0.00;0.00;;;;;;;10.29;100.00;99712.22;5004796;28;20121;-76
2023/08/30 04:54:49;;;;;;;0.00;0.00;;;;;;;10.26;100.00;99712.75;4984583;28;20477;-76
2023/08/30 04:57:16;;;;;;;0.00;0.00;;;;;;;10.26;100.00;99712.75;5012210;28;20698;-75
2023/08/30 04:59:43;;;;;;;0.00;0.00;;;;;;;10.16;100.00;99695.59;4981443;28;20444;-75
2023/08/30 05:02:11;;;;;;;0.00;0.00;;;;;;;10.26;100.00;99704.53;4979583;28;20496;-75
2023/08/30 05:04:37;;;;;;;0.00;0.00;;;;;;;10.28;100.00;99702.38;4972477;28;20026;-74
2023/08/30 05:07:05;;;;;;;0.00;0.00;;;;;;;10.27;100.00;99695.25;5027152;28;20043;-75
2023/08/30 05:09:34;;;;;;;0.00;0.00;;;;;;;10.33;100.00;99697.97;5020011;28;20025;-76
2023/08/30 05:12:00;;;;;;;0.00;0.00;;;;;;;10.41;100.00;99709.16;5017790;28;20033;-75
2023/08/30 05:14:27;;;;;;;0.00;0.00;;;;;;;10.28;100.00;99680.50;5025192;28;20022;-75
2023/08/30 05:16:52;;;;;;;0.00;0.00;;;;;;;10.37;100.00;99688.97;5020678;28;20763;-77
2023/08/30 05:19:18;;;;;;;0.00;0.00;;;;;;;10.44;100.00;99694.09;5005749;28;20049;-79
2023/08/30 05:21:54;;;;;;;;;;;;;;;;;;;;;
2023/08/30 05:25:02;;;;;;;;;;;;;;;;;;;;;
2023/08/30 05:27:31;;;;;;;0.00;0.00;;;;;;;9.87;100.00;99658.88;5004776;28;20044;-76
2023/08/30 05:30:37;;;;;;;0.00;0.00;;;;;;;9.83;100.00;99685.09;4999900;28;20421;-75
2023/08/30 05:33:24;;;;;;;;;;;;;;;;;;;;;
2023/08/30 05:36:51;;;;;;;0.00;0.00;;;;;;;9.67;100.00;99706.16;4997628;28;20041;-75
2023/08/30 05:42:23;;;;;;;;;;;;;;;;;;;;;
2023/08/30 05:45:22;;;;;;;0.00;0.00;;;;;;;9.36;100.00;99691.75;4999007;28;20032;-75
2023/08/30 05:48:14;;;;;;;0.00;0.00;;;;;;;9.15;100.00;99669.97;4996481;28;20057;-76
2023/08/30 05:51:20;;;;;;;0.00;0.00;;;;;;;9.47;100.00;99715.22;4995717;28;20041;-76
2023/08/30 05:54:04;;;;;;;;;;;;;;;;;;;;;
2023/08/30 05:56:32;;;;;;;0.00;0.00;;;;;;;9.42;100.00;99696.13;5006372;28;20055;-76
2023/08/30 05:59:34;;;;;;;;;;;;;;;;;;;;;
2023/08/30 06:02:15;;;;;;;;;;;;;;;;;;;;;
2023/08/30 06:05:00;;;;;;;;;;;;;;;;;;;;;
2023/08/30 06:07:26;;;;;;;0.10;0.10;;;;;;;9.69;100.00;99711.34;5028073;28;20391;-76
2023/08/30 06:09:51;;;;;;;0.00;0.00;;;;;;;9.74;100.00;99708.63;4996839;28;20109;-75
2023/08/30 06:12:17;;;;;;;0.00;0.00;;;;;;;9.79;100.00;99716.78;5006324;28;20132;-73
2023/08/30 06:14:51;;;;;;;0.00;0.00;;;;;;;9.67;100.00;99695.25;4998625;28;20393;-74
2023/08/30 06:17:17;;;;;;;0.00;0.00;;;;;;;9.77;100.00;99708.06;5008596;28;20033;-74
2023/08/30 06:19:43;;;;;;;0.00;0.00;;;;;;;9.79;100.00;99700.41;5002720;28;20075;-75
2023/08/30 06:22:08;;;;;;;0.00;0.00;;;;;;;9.95;100.00;99720.28;5014538;28;20017;-75
2023/08/30 06:24:34;;;;;;;0.00;0.00;;;;;;;10.05;100.00;99719.41;5015457;28;20120;-76
2023/08/30 06:26:59;;;;;;;0.00;0.00;;;;;;;10.18;100.00;99716.09;5005620;28;20042;-75
2023/08/30 06:29:25;;;;;;;0.00;0.00;;;;;;;10.18;100.00;99699.69;5019708;28;20025;-76
2023/08/30 06:31:50;;;;;;;0.00;0.00;;;;;;;10.51;100.00;99727.41;4999358;28;20569;-75
2023/08/30 06:34:16;;;;;;;0.00;0.00;;;;;;;10.67;100.00;99725.38;5028561;28;20116;-76
2023/08/30 06:36:42;;;;;;;0.00;0.00;;;;;;;10.82;100.00;99728.03;4992384;28;20034;-75
2023/08/30 06:39:07;;;;;;;0.00;0.00;;;;;;;10.85;100.00;99704.75;5021540;28;20056;-77
2023/08/30 06:41:35;;;;;;;0.00;0.00;;;;;;;11.08;100.00;99716.06;5012966;28;20033;-74
2023/08/30 06:44:00;;;;;;;0.00;0.00;;;;;;;11.25;100.00;99727.41;5017769;28;20021;-77
2023/08/30 06:46:34;;;;;;;0.00;0.00;;;;;;;11.24;100.00;99706.59;5005344;28;20696;-74
2023/08/30 06:48:59;;;;;;;0.00;0.00;;;;;;;11.26;100.00;99709.88;5012652;28;20412;-75
2023/08/30 06:51:25;;;;;;;0.00;0.00;;;;;;;11.26;100.00;99712.63;4967084;28;20041;-76
2023/08/30 06:53:50;;;;;;;0.00;0.00;;;;;;;11.32;100.00;99718.88;4990214;28;20030;-76
2023/08/30 06:56:16;;;;;;;0.00;0.00;;;;;;;11.35;100.00;99726.50;4994880;28;20037;-75
2023/08/30 06:58:41;;;;;;;0.00;0.00;;;;;;;11.30;100.00;99727.38;5024101;28;20032;-77
2023/08/30 07:01:07;;;;;;;0.00;0.00;;;;;;;11.26;99.85;99720.84;4995186;28;20029;-77
2023/08/30 07:03:32;;;;;;;0.00;0.00;;;;;;;11.35;99.88;99724.56;4977429;28;20025;-75
2023/08/30 07:05:58;;;;;;;0.00;0.00;;;;;;;11.61;99.37;99721.59;4974415;28;20053;-77
2023/08/30 07:08:23;;;;;;;0.00;0.00;;;;;;;11.93;98.00;99725.66;4967707;28;20033;-77
2023/08/30 07:10:49;;;;;;;0.00;0.00;;;;;;;12.31;95.94;99733.09;4982555;28;20034;-78
2023/08/30 07:13:14;;;;;;;0.00;0.00;;;;;;;12.59;94.90;99739.59;4998065;28;20050;-77
2023/08/30 07:15:40;;;;;;;0.00;0.00;;;;;;;12.92;93.13;99742.38;5004784;28;20028;-77
2023/08/30 07:18:07;;;;;;;0.00;0.00;;;;;;;13.24;91.60;99738.03;4997185;28;20022;-77
2023/08/30 07:20:32;;;;;;;0.00;0.00;;;;;;;13.48;89.12;99734.34;4991718;28;20030;-76
2023/08/30 07:22:58;;;;;;;0.00;0.00;;;;;;;13.66;87.96;99744.47;4996214;28;20053;-75
2023/08/30 07:25:24;;;;;;;0.00;0.00;;;;;;;13.69;86.58;99737.56;4988427;28;20033;-76
2023/08/30 07:27:50;;;;;;;0.00;0.00;;;;;;;13.74;86.10;99740.19;5007064;28;20025;-77
2023/08/30 07:30:15;;;;;;;0.00;0.00;;;;;;;13.84;85.04;99733.69;4998233;28;20022;-77
2023/08/30 07:32:41;;;;;;;0.00;0.00;;;;;;;13.83;84.27;99732.06;4974586;28;20030;-76
2023/08/30 07:35:06;;;;;;;0.00;0.00;;;;;;;13.69;84.67;99729.31;4977095;28;20033;-76
2023/08/30 07:37:32;;;;;;;0.00;0.00;;;;;;;13.59;85.69;99733.06;4986803;28;20086;-76
2023/08/30 07:39:57;;;;;;;0.00;0.00;;;;;;;13.66;86.17;99733.47;4989558;28;20108;-76
2023/08/30 07:42:23;;;;;;;0.00;0.00;;;;;;;13.89;85.63;99730.84;5010177;28;20029;-77
2023/08/30 07:44:48;;;;;;;0.00;0.00;;;;;;;13.97;84.90;99727.38;4998306;28;20034;-76
2023/08/30 07:47:19;;;;;;;0.00;0.00;;;;;;;14.06;85.00;99736.56;4985603;28;20643;-77
2023/08/30 07:49:49;;;;;;;0.00;0.00;;;;;;;13.99;84.42;99730.66;5002574;28;20084;-75
2023/08/30 07:52:32;;;;;;;0.00;0.00;;;;;;;13.92;84.54;99730.25;4971673;28;20026;-76
2023/08/30 07:55:20;;;;;;;0.00;0.00;;;;;;;14.13;84.36;99750.72;4995512;28;20025;-76
2023/08/30 07:57:53;;;;;;;0.00;0.00;;;;;;;13.92;84.29;99713.75;4991643;28;20137;-76
2023/08/30 08:00:34;;;;;;;;;;;;;;;;;;;;;
2023/08/30 08:03:07;;;;;;;0.00;0.00;;;;;;;14.01;83.41;99722.09;4997134;28;20030;-76
2023/08/30 08:05:35;;;;;;;0.00;0.00;;;;;;;14.36;83.27;99759.03;4989556;28;20447;-76
2023/08/30 08:08:03;;;;;;;0.00;0.00;;;;;;;14.59;83.28;99759.09;4988951;28;20038;-77
2023/08/30 08:10:34;;;;;;;0.00;0.00;;;;;;;14.92;81.73;99753.41;4969989;28;20543;-76
2023/08/30 08:13:00;;;;;;;0.00;0.00;;;;;;;15.38;80.35;99751.50;4990852;28;20030;-77
2023/08/30 08:15:25;;;;;;;0.00;0.00;;;;;;;15.65;78.52;99756.84;5007253;28;20045;-77
2023/08/30 08:17:51;;;;;;;0.00;0.00;;;;;;;16.04;78.32;99762.69;4998848;28;20033;-76
2023/08/30 08:20:18;;;;;;;0.00;0.00;;;;;;;16.38;75.72;99766.69;4981239;28;20092;-76
2023/08/30 08:22:44;;;;;;;0.00;0.00;;;;;;;17.00;75.20;99759.31;4990987;28;20076;-76
2023/08/30 08:25:09;;;;;;;0.00;0.00;;;;;;;17.17;72.99;99753.78;4993959;28;20714;-75
2023/08/30 08:27:36;;;;;;;0.00;0.00;;;;;;;17.98;71.52;99753.28;4972053;28;20030;-76
2023/08/30 08:30:03;;;;;;;0.00;0.00;;;;;;;20.22;63.21;99757.50;4990515;28;20026;-75
2023/08/30 08:32:30;;;;;;;0.00;0.00;;;;;;;21.18;57.10;99752.47;4992254;28;20030;-76
2023/08/30 08:34:56;;;;;;;0.00;0.00;;;;;;;21.39;54.91;99761.41;4987051;28;20040;-77
2023/08/30 08:37:21;;;;;;;0.00;0.00;;;;;;;20.69;56.05;99758.97;4987874;28;20424;-77
2023/08/30 08:39:49;;;;;;;0.00;0.00;;;;;;;20.46;58.63;99756.69;5000902;28;20085;-76
2023/08/30 08:42:19;;;;;;;0.00;0.00;;;;;;;20.28;58.47;99761.69;4980993;28;20052;-75
2023/08/30 08:44:48;;;;;;;0.00;0.00;;;;;;;20.23;57.56;99753.59;4993016;28;20042;-75
2023/08/30 08:47:15;;;;;;;0.00;0.00;;;;;;;20.58;56.75;99767.78;5029575;28;20057;-76
2023/08/30 08:49:41;;;;;;;0.00;0.00;;;;;;;20.61;56.50;99774.59;4992118;28;20041;-75
2023/08/30 08:52:07;;;;;;;0.00;0.00;;;;;;;20.19;56.22;99764.59;5002681;28;20026;-75
2023/08/30 08:54:33;;;;;;;0.00;0.00;;;;;;;20.06;55.02;99776.81;4974562;28;20027;-76
2023/08/30 08:57:00;;;;;;;0.00;0.00;;;;;;;20.08;56.06;99771.75;4982927;28;20045;-75
2023/08/30 08:59:25;;;;;;;0.00;0.00;;;;;;;21.17;54.04;99778.66;4996459;28;20053;-75
2023/08/30 09:01:52;;;;;;;0.00;0.00;;;;;;;22.60;52.12;99780.75;4998519;28;20105;-75
2023/08/30 09:04:18;;;;;;;0.00;0.00;;;;;;;23.75;46.71;99788.69;4982394;28;20034;-75
2023/08/30 09:06:44;;;;;;;0.00;0.00;;;;;;;26.02;42.87;99791.03;4962455;28;20111;-75
2023/08/30 09:09:10;;;;;;;0.00;0.00;;;;;;;28.81;36.88;99780.34;4981226;28;20490;-74
2023/08/30 09:11:37;;;;;;;0.00;0.00;;;;;;;28.90;35.20;99783.53;4995577;28;20026;-75
2023/08/30 09:14:02;;;;;;;0.00;0.00;;;;;;;27.56;36.05;99787.56;4998795;28;20137;-75
2023/08/30 09:16:28;;;;;;;0.00;0.00;;;;;;;26.69;38.45;99772.34;4979043;28;20104;-74
2023/08/30 09:19:11;;;;;;;0.00;0.00;;;;;;;26.94;39.38;99776.09;4970748;28;20038;-74
2023/08/30 09:21:39;;;;;;;0.00;0.00;;;;;;;26.29;39.41;99784.06;4970904;28;20401;-75
2023/08/30 09:24:17;;;;;;;0.00;0.00;;;;;;;25.72;40.44;99773.13;4976104;28;20392;-76
2023/08/30 09:26:50;;;;;;;0.00;0.00;;;;;;;25.79;40.56;99772.41;4995523;28;20449;-74
2023/08/30 09:29:21;;;;;;;0.00;0.00;;;;;;;27.75;36.49;99772.34;4989452;28;20404;-76
2023/08/30 09:31:51;;;;;;;0.00;0.00;;;;;;;29.52;34.02;99784.09;4997195;28;20101;-75
2023/08/30 09:34:16;;;;;;;0.00;0.00;;;;;;;31.71;31.73;99766.19;4994070;28;20041;-75
2023/08/30 09:36:42;;;;;;;0.00;0.00;;;;;;;34.59;28.38;99760.97;4995418;28;20093;-75
2023/08/30 09:39:10;;;;;;;0.00;0.00;;;;;;;35.08;28.40;99773.41;4984394;28;20014;-75
2023/08/30 09:41:55;;;;;;;0.00;0.00;;;;;;;36.93;27.06;99769.00;5010573;28;20026;-75
2023/08/30 09:44:21;;;;;;;0.00;0.00;;;;;;;37.86;23.74;99764.59;4998741;28;20452;-75
2023/08/30 09:46:47;;;;;;;0.00;0.00;;;;;;;37.49;22.93;99775.84;5006371;28;20752;-75
2023/08/30 09:49:13;;;;;;;0.00;0.00;;;;;;;35.98;24.66;99760.06;5000420;28;20026;-73
2023/08/30 09:51:43;;;;;;;0.00;0.00;;;;;;;36.46;24.22;99759.28;4997335;28;20127;-74
2023/08/30 09:54:17;;;;;;;0.00;0.00;;;;;;;38.85;23.23;99763.59;5006112;28;20116;-74
2023/08/30 09:56:43;;;;;;;0.00;0.00;;;;;;;40.70;20.17;99759.06;4994311;28;20045;-75
2023/08/30 09:59:11;;;;;;;0.00;0.00;;;;;;;41.67;17.89;99762.31;5007316;28;20030;-75
2023/08/30 10:01:37;;;;;;;0.00;0.00;;;;;;;40.21;18.72;99758.31;4983505;28;20030;-75
2023/08/30 10:04:04;;;;;;;0.00;0.00;;;;;;;40.19;19.22;99751.50;4985545;28;20056;-73
2023/08/30 10:06:29;;;;;;;0.00;0.00;;;;;;;41.23;18.89;99753.78;4987744;28;20037;-74
2023/08/30 10:08:56;;;;;;;0.00;0.00;;;;;;;40.29;18.48;99753.81;4990770;28;20048;-74
2023/08/30 10:11:23;;;;;;;0.00;0.00;;;;;;;38.17;20.60;99738.00;5001934;28;20117;-73
2023/08/30 10:13:52;;;;;;;0.00;0.00;;;;;;;36.29;21.62;99727.38;4993028;28;20109;-74
2023/08/30 10:16:24;;;;;;;0.00;0.00;;;;;;;37.28;21.20;99744.09;4978103;28;20056;-75
2023/08/30 10:18:54;;;;;;;0.00;0.00;;;;;;;38.80;19.55;99732.03;4984024;28;20048;-74
2023/08/30 10:21:21;;;;;;;0.00;0.00;;;;;;;40.54;18.25;99731.69;5004406;28;20065;-75
2023/08/30 10:23:55;;;;;;;0.00;0.00;;;;;;;39.98;18.24;99736.97;4967100;28;20033;-75
2023/08/30 10:26:23;;;;;;;0.00;0.00;;;;;;;37.02;19.94;99729.97;5006429;28;20034;-74
2023/08/30 10:28:49;;;;;;;0.00;0.00;;;;;;;32.04;24.51;99733.34;4962195;28;20682;-74
2023/08/30 10:31:15;;;;;;;0.00;0.00;;;;;;;28.78;28.83;99724.88;4990289;28;20030;-75
2023/08/30 10:33:52;;;;;;;0.00;0.00;;;;;;;26.81;31.61;99729.97;4983569;28;20542;-74
2023/08/30 10:36:24;;;;;;;0.00;0.00;;;;;;;25.71;34.36;99725.94;4980151;28;20085;-74
2023/08/30 10:38:53;;;;;;;0.00;0.00;;;;;;;25.11;35.98;99722.09;4997001;28;21527;-74
2023/08/30 10:41:24;;;;;;;0.00;0.00;;;;;;;28.72;33.91;99725.31;4972009;28;20044;-77
2023/08/30 10:43:56;;;;;;;0.00;0.00;;;;;;;34.88;25.82;99737.47;4980644;28;20026;-74
2023/08/30 10:46:32;;;;;;;0.00;0.00;;;;;;;38.61;20.26;99734.88;4973953;28;20527;-74
2023/08/30 10:49:14;;;;;;;0.00;0.00;;;;;;;36.15;21.54;99731.47;4995078;28;20126;-75
2023/08/30 10:51:40;;;;;;;0.00;0.00;;;;;;;34.20;23.24;99734.44;4982958;28;20125;-73
2023/08/30 10:54:17;;;;;;;0.00;0.00;;;;;;;31.59;25.55;99725.19;4987621;28;20117;-76
2023/08/30 10:56:51;;;;;;;0.00;0.00;;;;;;;34.76;23.15;99735.38;4997879;28;20049;-75
2023/08/30 10:59:22;;;;;;;0.00;0.00;;;;;;;37.53;20.86;99725.97;5009775;28;20026;-74
2023/08/30 11:01:49;;;;;;;0.00;0.00;;;;;;;41.16;18.83;99740.63;5012557;28;20706;-75
2023/08/30 11:04:18;;;;;;;0.00;0.00;;;;;;;44.27;16.82;99741.09;4996589;28;20531;-76
2023/08/30 11:06:46;;;;;;;0.00;0.00;;;;;;;45.72;15.12;99742.28;4997803;28;20494;-75
2023/08/30 11:09:19;;;;;;;0.00;0.00;;;;;;;48.11;13.68;99731.41;4997424;28;20040;-76
2023/08/30 11:11:49;;;;;;;0.00;0.00;;;;;;;47.74;11.81;99708.91;4999394;28;20078;-75
2023/08/30 11:14:16;;;;;;;0.00;0.00;;;;;;;45.83;11.62;99724.97;5020215;28;20033;-75
2023/08/30 11:16:42;;;;;;;0.00;0.00;;;;;;;44.78;12.38;99715.28;5007071;28;20500;-75
2023/08/30 11:19:09;;;;;;;0.00;0.00;;;;;;;45.05;12.74;99723.72;5003225;28;20099;-76
2023/08/30 11:21:42;;;;;;;0.00;0.00;;;;;;;43.01;13.87;99714.06;4999032;28;20027;-76
2023/08/30 11:24:08;;;;;;;0.00;0.00;;;;;;;40.73;15.72;99714.28;5014123;28;20024;-75
2023/08/30 11:26:33;;;;;;;0.00;0.00;;;;;;;39.92;15.52;99713.19;5013838;28;20025;-75
2023/08/30 11:29:09;;;;;;;0.00;0.00;;;;;;;37.22;18.16;99706.00;4986553;28;20054;-76
2023/08/30 11:31:35;;;;;;;0.00;0.00;;;;;;;34.32;20.74;99706.59;4989296;28;20026;-76
2023/08/30 11:34:01;;;;;;;0.00;0.00;;;;;;;31.62;22.66;99696.09;4999288;28;20037;-75
2023/08/30 11:36:31;;;;;;;0.00;0.00;;;;;;;29.41;24.81;99692.03;5017175;28;20040;-77
2023/08/30 11:38:57;;;;;;;0.00;0.00;;;;;;;27.18;28.06;99689.59;4996919;28;20153;-75
2023/08/30 11:41:24;;;;;;;0.00;0.00;;;;;;;25.80;31.08;99692.81;4991673;28;20029;-76
2023/08/30 11:43:51;;;;;;;0.00;0.00;;;;;;;26.34;31.29;99701.63;4987797;28;20033;-76
2023/08/30 11:46:18;;;;;;;0.00;0.00;;;;;;;26.04;31.82;99699.03;4999414;28;20068;-76
2023/08/30 11:48:45;;;;;;;0.00;0.00;;;;;;;25.53;32.32;99703.38;5017178;28;20108;-77
2023/08/30 11:51:10;;;;;;;0.00;0.00;;;;;;;25.30;33.44;99706.31;5004936;28;20029;-76
2023/08/30 11:53:37;;;;;;;0.00;0.00;;;;;;;25.13;33.35;99702.94;5023617;28;20119;-76
2023/08/30 11:56:03;;;;;;;0.00;0.00;;;;;;;24.18;33.91;99688.94;5011486;28;20465;-74
2023/08/30 11:58:32;;;;;;;0.00;0.00;;;;;;;23.01;36.09;99692.84;5023250;28;20045;-75
2023/08/30 12:00:57;;;;;;;0.00;0.00;;;;;;;22.21;37.31;99697.06;5008068;28;20107;-75
2023/08/30 12:03:23;;;;;;;0.00;0.00;;;;;;;21.71;40.46;99703.06;4968243;28;20465;-77
2023/08/30 12:05:50;;;;;;;0.00;0.00;;;;;;;21.19;42.18;99709.63;4994810;28;20034;-75
2023/08/30 12:08:30;;;;;;;0.00;0.00;;;;;;;20.78;43.60;99711.63;4989774;28;20030;-74
2023/08/30 12:10:56;;;;;;;0.00;0.00;;;;;;;20.67;44.40;99711.31;5009299;28;20476;-76
2023/08/30 12:13:29;;;;;;;0.00;0.00;;;;;;;20.48;44.48;99720.25;5009196;28;20029;-76
2023/08/30 12:15:59;;;;;;;0.00;0.00;;;;;;;20.51;44.62;99719.53;4988855;28;20036;-76